Time;durP1;ratioP1;P1;durP2;ratioP2;P2;SDS_P1;SDS_P2;PMS_P1;PMS_P2;Temp;Humidity;BMP_temperature;BMP_pressure;BME280_temperature;BME280_humidity;BME280_pressure;Samples;Min_cycle;Max_cycle;Signal;HPM_P1;HPM_P2
2021/05/29 00:01:14;;;;;;;3.00;1.33;;;13.20;70.60;;;;;;5105154;28;20114;-72
2021/05/29 00:03:41;;;;;;;2.58;1.40;;;13.20;70.70;;;;;;5080944;28;20036;-72
2021/05/29 00:06:09;;;;;;;2.75;1.08;;;13.20;71.00;;;;;;5097057;28;20048;-72
2021/05/29 00:08:36;;;;;;;2.50;1.08;;;13.20;71.00;;;;;;5082247;28;20432;-72
2021/05/29 00:11:05;;;;;;;2.72;1.65;;;13.10;71.10;;;;;;5102897;28;20039;-72
2021/05/29 00:13:32;;;;;;;2.92;1.10;;;13.10;71.20;;;;;;5077844;28;20047;-72
2021/05/29 00:16:00;;;;;;;2.53;1.25;;;13.10;71.30;;;;;;5095598;28;20043;-72
2021/05/29 00:18:27;;;;;;;2.63;1.30;;;13.10;71.50;;;;;;5078953;28;20431;-73
2021/05/29 00:20:54;;;;;;;3.88;1.08;;;13.10;72.20;;;;;;5110412;28;20101;-72
2021/05/29 00:23:22;;;;;;;2.33;0.95;;;13.10;71.70;;;;;;5096466;28;20054;-72
2021/05/29 00:25:49;;;;;;;2.20;0.95;;;13.10;71.80;;;;;;5090961;28;20050;-72
2021/05/29 00:28:16;;;;;;;2.83;0.95;;;13.00;71.90;;;;;;5115259;28;20685;-72
2021/05/29 00:30:45;;;;;;;2.65;1.30;;;13.00;71.90;;;;;;5082965;28;20540;-72
2021/05/29 00:33:13;;;;;;;3.65;1.30;;;13.00;72.10;;;;;;5115122;28;20062;-73
2021/05/29 00:35:41;;;;;;;2.97;1.38;;;13.00;72.30;;;;;;5090557;28;20063;-73
2021/05/29 00:38:08;;;;;;;3.65;1.67;;;13.00;72.40;;;;;;5115135;28;20040;-73
2021/05/29 00:40:36;;;;;;;3.20;1.25;;;12.90;72.60;;;;;;5093115;28;20043;-73
2021/05/29 00:43:05;;;;;;;5.40;2.03;;;12.90;72.70;;;;;;5100489;28;20470;-72
2021/05/29 00:45:33;;;;;;;3.50;1.90;;;12.90;72.80;;;;;;5099531;28;20040;-75
2021/05/29 00:48:01;;;;;;;3.05;1.70;;;12.80;73.50;;;;;;5096948;28;20043;-72
2021/05/29 00:50:29;;;;;;;4.90;1.77;;;12.80;72.90;;;;;;5076279;28;20499;-73
2021/05/29 00:52:56;;;;;;;3.00;1.20;;;12.80;72.90;;;;;;5085600;28;20040;-73
2021/05/29 00:55:23;;;;;;;2.20;1.02;;;12.70;73.10;;;;;;5094046;28;20032;-72
2021/05/29 00:57:52;;;;;;;3.28;1.40;;;12.70;73.20;;;;;;5094134;28;20475;-73
2021/05/29 01:00:23;;;;;;;2.28;1.17;;;12.70;73.30;;;;;;5076188;28;20032;-72
2021/05/29 01:02:51;;;;;;;4.70;1.17;;;12.70;73.50;;;;;;5076015;28;20044;-73
2021/05/29 01:05:20;;;;;;;2.10;0.75;;;12.70;73.60;;;;;;5075668;28;20487;-72
2021/05/29 01:07:52;;;;;;;1.98;0.80;;;12.60;73.60;;;;;;5075667;28;20028;-76
2021/05/29 01:10:22;;;;;;;2.20;1.00;;;12.60;73.60;;;;;;5093204;28;20051;-73
2021/05/29 01:12:51;;;;;;;2.53;0.95;;;12.60;73.70;;;;;;5085844;28;20040;-74
2021/05/29 01:15:19;;;;;;;2.00;0.57;;;12.60;73.70;;;;;;5090542;28;20032;-73
2021/05/29 01:17:47;;;;;;;2.47;0.60;;;12.60;73.70;;;;;;5068035;28;20102;-72
2021/05/29 01:20:15;;;;;;;1.55;0.70;;;12.50;73.70;;;;;;5074073;28;20110;-74
2021/05/29 01:22:53;;;;;;;4.10;0.90;;;12.50;73.70;;;;;;5095869;28;20086;-73
2021/05/29 01:25:26;;;;;;;2.17;0.77;;;12.50;73.60;;;;;;5072280;28;20040;-73
2021/05/29 01:27:55;;;;;;;;;;;12.50;73.70;;;;;;5093408;28;20479;-72
2021/05/29 01:30:22;;;;;;;1.27;0.40;;;12.40;73.70;;;;;;5093419;28;19963;-74
2021/05/29 01:32:49;;;;;;;1.10;0.43;;;12.40;73.70;;;;;;5079351;28;20043;-72
2021/05/29 01:35:16;;;;;;;1.83;0.45;;;12.30;73.70;;;;;;5072387;28;20037;-72
2021/05/29 01:37:44;;;;;;;1.42;0.60;;;12.30;73.70;;;;;;5088785;28;20105;-72
2021/05/29 01:40:11;;;;;;;0.68;0.40;;;12.30;73.70;;;;;;5056628;28;20097;-72
2021/05/29 01:42:39;;;;;;;3.25;0.70;;;12.30;73.70;;;;;;5102302;27;20085;-72
2021/05/29 01:45:08;;;;;;;1.63;0.45;;;12.30;73.80;;;;;;5108686;27;20082;-72
2021/05/29 01:47:41;;;;;;;1.40;0.50;;;12.20;73.90;;;;;;5109525;28;20040;-72
2021/05/29 01:50:11;;;;;;;2.03;1.15;;;12.20;73.90;;;;;;5092960;28;20089;-72
2021/05/29 01:52:53;;;;;;;1.17;0.50;;;12.20;74.00;;;;;;5110657;27;20040;-72
2021/05/29 01:55:23;;;;;;;1.50;0.65;;;12.20;73.90;;;;;;5111588;27;20039;-73
2021/05/29 01:57:51;;;;;;;1.55;0.52;;;12.10;74.00;;;;;;5087772;28;20068;-72
2021/05/29 02:00:20;;;;;;;1.42;0.50;;;12.10;73.90;;;;;;5091562;28;20529;-72
2021/05/29 02:02:47;;;;;;;1.23;0.50;;;12.10;74.00;;;;;;5090712;28;20051;-72
2021/05/29 02:05:24;;;;;;;1.13;0.50;;;12.00;73.90;;;;;;5113278;28;20842;-71
2021/05/29 02:07:51;;;;;;;1.50;0.80;;;12.10;74.00;;;;;;5113122;28;20415;-72
2021/05/29 02:10:25;;;;;;;1.50;0.60;;;12.00;74.00;;;;;;5113081;28;20027;-72
2021/05/29 02:12:55;;;;;;;2.58;0.63;;;12.00;74.00;;;;;;5113165;28;20093;-72
2021/05/29 02:15:31;;;;;;;1.60;0.60;;;12.00;74.10;;;;;;5112755;28;20552;-72
2021/05/29 02:18:01;;;;;;;1.02;0.40;;;12.00;74.10;;;;;;5112709;28;20093;-72
2021/05/29 02:20:54;;;;;;;1.35;0.60;;;11.90;74.20;;;;;;5094856;28;20449;-72
2021/05/29 02:23:36;;;;;;;1.40;0.50;;;11.80;74.20;;;;;;5112900;28;20040;-72
2021/05/29 02:26:12;;;;;;;2.08;0.93;;;11.80;74.20;;;;;;5113083;28;20043;-71
2021/05/29 02:28:42;;;;;;;2.70;0.60;;;11.80;74.40;;;;;;5091949;28;20066;-72
2021/05/29 02:31:10;;;;;;;2.38;0.85;;;11.80;74.30;;;;;;5112612;28;20443;-73
2021/05/29 02:33:37;;;;;;;1.25;0.50;;;11.80;74.40;;;;;;5090316;28;20423;-72
2021/05/29 02:36:05;;;;;;;1.00;0.50;;;11.80;74.50;;;;;;5094610;28;20486;-72
2021/05/29 02:38:34;;;;;;;2.92;0.50;;;11.70;74.40;;;;;;5112322;28;20051;-72
2021/05/29 02:41:03;;;;;;;1.92;0.52;;;11.70;74.50;;;;;;5094161;28;20051;-72
2021/05/29 02:43:30;;;;;;;1.30;0.60;;;11.70;74.60;;;;;;5111666;28;20055;-73
2021/05/29 02:45:57;;;;;;;1.63;0.73;;;11.70;74.70;;;;;;5112195;28;20043;-72
2021/05/29 02:48:24;;;;;;;0.77;0.43;;;11.60;74.80;;;;;;5110971;28;20031;-72
2021/05/29 02:50:52;;;;;;;2.58;0.88;;;11.60;74.80;;;;;;5077184;28;20047;-72
2021/05/29 02:53:19;;;;;;;1.70;0.57;;;11.60;74.90;;;;;;5112577;28;20065;-72
2021/05/29 02:55:46;;;;;;;1.55;0.65;;;11.60;75.00;;;;;;5086436;28;20051;-72
2021/05/29 02:58:13;;;;;;;1.55;0.68;;;11.50;75.20;;;;;;5093856;28;20047;-72
2021/05/29 03:00:43;;;;;;;4.60;0.77;;;11.50;75.30;;;;;;5111911;28;20054;-72
2021/05/29 03:03:11;;;;;;;1.35;0.65;;;11.50;75.40;;;;;;5111675;28;20046;-72
2021/05/29 03:05:41;;;;;;;3.17;0.95;;;11.50;75.50;;;;;;5112185;28;20031;-72
2021/05/29 03:08:10;;;;;;;1.25;0.60;;;11.40;75.50;;;;;;5110321;28;20096;-72
2021/05/29 03:10:38;;;;;;;2.95;1.20;;;11.40;75.60;;;;;;5112074;28;20046;-72
2021/05/29 03:13:07;;;;;;;1.98;0.93;;;11.40;75.70;;;;;;5111429;28;20093;-71
2021/05/29 03:15:35;;;;;;;2.15;1.08;;;11.30;75.70;;;;;;5111315;28;20044;-72
2021/05/29 03:18:05;;;;;;;2.08;0.75;;;11.40;75.90;;;;;;5112283;28;20067;-71
2021/05/29 03:20:33;;;;;;;2.72;1.00;;;11.30;75.90;;;;;;5111730;28;20062;-69
2021/05/29 03:23:00;;;;;;;4.07;1.00;;;11.30;76.00;;;;;;5111305;28;20043;-68
2021/05/29 03:25:27;;;;;;;2.50;0.85;;;11.30;76.10;;;;;;5092831;28;20051;-68
2021/05/29 03:27:54;;;;;;;1.98;0.73;;;11.20;76.10;;;;;;5110900;28;20047;-69
2021/05/29 03:30:24;;;;;;;3.22;1.17;;;11.20;76.20;;;;;;5091201;28;20031;-68
2021/05/29 03:32:52;;;;;;;1.73;0.90;;;11.20;76.30;;;;;;5080755;28;20044;-68
2021/05/29 03:35:20;;;;;;;2.65;1.20;;;11.20;76.50;;;;;;5104824;28;20418;-68
2021/05/29 03:37:47;;;;;;;2.35;1.00;;;11.20;76.50;;;;;;5093305;28;20556;-69
2021/05/29 03:40:15;;;;;;;3.05;1.40;;;11.20;76.50;;;;;;5091924;28;20445;-68
2021/05/29 03:42:43;;;;;;;3.60;1.50;;;11.10;76.50;;;;;;5074052;28;20047;-69
2021/05/29 03:45:14;;;;;;;2.90;1.48;;;11.10;76.60;;;;;;5093621;28;20051;-69
2021/05/29 03:47:42;;;;;;;2.13;1.10;;;11.10;76.70;;;;;;5088944;28;20043;-69
2021/05/29 03:50:11;;;;;;;2.72;1.20;;;11.10;76.80;;;;;;5093047;28;20074;-69
2021/05/29 03:52:41;;;;;;;2.17;1.30;;;11.10;76.70;;;;;;5090429;28;20089;-69
2021/05/29 03:55:10;;;;;;;3.13;1.42;;;11.10;76.80;;;;;;5093321;28;20051;-69
2021/05/29 03:57:38;;;;;;;3.53;1.50;;;11.10;76.90;;;;;;5115245;28;20097;-68
2021/05/29 04:00:07;;;;;;;2.88;1.50;;;11.10;77.30;;;;;;5097005;28;20035;-69
2021/05/29 04:02:38;;;;;;;2.33;1.00;;;11.10;77.00;;;;;;5115470;28;20081;-69
2021/05/29 04:05:07;;;;;;;2.72;1.20;;;11.10;77.10;;;;;;5114853;28;20050;-69
2021/05/29 04:07:34;;;;;;;2.53;1.35;;;11.10;77.10;;;;;;5097230;28;20526;-69
2021/05/29 04:10:01;;;;;;;2.75;1.38;;;11.10;77.10;;;;;;5079872;28;20039;-68
2021/05/29 04:12:31;;;;;;;3.50;1.50;;;11.10;77.30;;;;;;5097319;28;20043;-69
2021/05/29 04:14:58;;;;;;;3.08;1.50;;;11.10;77.30;;;;;;5094633;28;20035;-69
2021/05/29 04:17:27;;;;;;;2.22;1.00;;;11.10;77.30;;;;;;5114175;28;20047;-69
2021/05/29 04:19:53;;;;;;;2.90;1.30;;;11.10;77.30;;;;;;5107390;28;20047;-69
2021/05/29 04:22:20;;;;;;;3.85;1.40;;;11.10;77.30;;;;;;5079976;28;20047;-69
2021/05/29 04:24:49;;;;;;;3.13;1.50;;;11.10;77.30;;;;;;5114666;28;20093;-68
2021/05/29 04:27:17;;;;;;;3.03;1.45;;;11.10;77.30;;;;;;5078399;28;20070;-68
2021/05/29 04:29:45;;;;;;;3.33;1.10;;;11.20;77.30;;;;;;5114532;28;20440;-68
2021/05/29 04:32:12;;;;;;;2.17;1.10;;;11.20;77.30;;;;;;5114722;28;20038;-68
2021/05/29 04:34:40;;;;;;;3.30;1.45;;;11.20;77.30;;;;;;5114121;28;20043;-68
2021/05/29 04:37:07;;;;;;;5.22;1.83;;;11.20;77.30;;;;;;5114683;28;20499;-69
2021/05/29 04:39:34;;;;;;;4.50;1.50;;;11.30;77.30;;;;;;5110103;28;20097;-68
2021/05/29 04:42:02;;;;;;;2.28;1.10;;;11.20;77.30;;;;;;5114612;28;20051;-69
2021/05/29 04:44:29;;;;;;;2.67;1.15;;;11.30;77.30;;;;;;5114583;28;20044;-69
2021/05/29 04:47:00;;;;;;;1.75;0.85;;;11.40;77.10;;;;;;5094286;28;20353;-69
2021/05/29 04:49:29;;;;;;;2.90;1.45;;;11.50;77.00;;;;;;5091881;28;20043;-69
2021/05/29 04:51:57;;;;;;;2.58;1.40;;;11.50;77.50;;;;;;5079294;28;20563;-68
2021/05/29 04:54:26;;;;;;;2.63;1.40;;;11.60;77.00;;;;;;5095310;28;20027;-69
2021/05/29 04:56:53;;;;;;;2.88;1.45;;;11.60;77.00;;;;;;5075390;28;20036;-69
2021/05/29 04:59:20;;;;;;;2.80;1.02;;;11.60;77.00;;;;;;5104883;28;20482;-69
2021/05/29 05:01:47;;;;;;;2.60;1.25;;;11.70;77.00;;;;;;5114224;28;20043;-69
2021/05/29 05:04:16;;;;;;;3.17;1.42;;;11.70;77.00;;;;;;5113064;28;20036;-69
2021/05/29 05:06:44;;;;;;;4.35;1.40;;;11.80;76.90;;;;;;5113526;28;20035;-69
2021/05/29 05:09:11;;;;;;;5.35;2.03;;;11.80;76.90;;;;;;5095085;28;20414;-69
2021/05/29 05:11:38;;;;;;;5.15;2.25;;;11.90;76.90;;;;;;5113805;28;20044;-69
2021/05/29 05:14:05;;;;;;;3.05;1.50;;;11.90;76.80;;;;;;5113544;28;20458;-69
2021/05/29 05:16:32;;;;;;;5.15;2.25;;;12.00;76.80;;;;;;5111932;28;20538;-69
2021/05/29 05:18:59;;;;;;;4.20;2.10;;;12.10;76.80;;;;;;5113253;28;20071;-69
2021/05/29 05:21:27;;;;;;;4.03;2.30;;;12.10;76.70;;;;;;5076937;28;20461;-69
2021/05/29 05:23:56;;;;;;;4.07;2.17;;;12.20;76.60;;;;;;5112655;28;20101;-69
2021/05/29 05:26:23;;;;;;;4.07;2.30;;;12.20;76.50;;;;;;5079612;28;20050;-69
2021/05/29 05:28:51;;;;;;;4.07;1.98;;;12.30;76.50;;;;;;5109664;28;20035;-68
2021/05/29 05:31:18;;;;;;;4.35;1.85;;;12.40;76.70;;;;;;5094638;28;20063;-69
2021/05/29 05:33:47;;;;;;;4.75;2.42;;;12.40;76.40;;;;;;5111118;28;20059;-68
2021/05/29 05:36:14;;;;;;;3.70;1.95;;;12.50;76.30;;;;;;5078343;28;20071;-68
2021/05/29 05:38:44;;;;;;;4.75;2.28;;;12.60;76.80;;;;;;5111930;28;20039;-69
2021/05/29 05:41:13;;;;;;;4.85;1.90;;;12.70;76.20;;;;;;5113309;28;20031;-69
2021/05/29 05:43:41;;;;;;;6.80;1.92;;;12.80;76.00;;;;;;5112749;28;20401;-69
2021/05/29 05:46:11;;;;;;;3.78;1.83;;;12.90;75.80;;;;;;5090857;28;20035;-69
2021/05/29 05:48:38;;;;;;;5.15;2.35;;;13.10;75.70;;;;;;5084752;28;20056;-69
2021/05/29 05:51:06;;;;;;;4.90;2.70;;;13.10;75.60;;;;;;5111217;28;20038;-69
2021/05/29 05:53:33;;;;;;;4.70;2.70;;;13.20;75.50;;;;;;5094201;28;20039;-69
2021/05/29 05:56:04;;;;;;;5.78;3.22;;;13.30;76.00;;;;;;5113751;28;20043;-69
2021/05/29 05:58:36;;;;;;;6.20;2.67;;;13.40;75.30;;;;;;5113063;28;20441;-69
2021/05/29 06:01:06;;;;;;;4.72;2.42;;;13.40;75.20;;;;;;5113269;28;20043;-69
2021/05/29 06:03:34;;;;;;;4.32;2.50;;;13.50;75.20;;;;;;5093896;28;20047;-69
2021/05/29 06:06:02;;;;;;;3.95;2.35;;;13.60;75.10;;;;;;5094706;28;20370;-69
2021/05/29 06:08:29;;;;;;;5.47;3.28;;;13.70;75.00;;;;;;5112776;28;20126;-69
2021/05/29 06:10:56;;;;;;;3.53;1.70;;;13.80;74.80;;;;;;5113326;28;20040;-69
2021/05/29 06:19:21;;;;;;;5.40;2.78;;;13.90;74.30;;;;;;5096897;28;20118;-69
2021/05/29 06:21:50;;;;;;;4.15;2.30;;;14.00;74.20;;;;;;5112463;28;20122;-69
2021/05/29 06:24:24;;;;;;;5.22;2.40;;;14.00;74.00;;;;;;5093260;28;20403;-70
2021/05/29 06:26:52;;;;;;;4.55;2.70;;;14.10;74.00;;;;;;5112343;28;20043;-69
2021/05/29 06:29:19;;;;;;;5.10;2.30;;;14.20;73.80;;;;;;5090697;28;20055;-69
2021/05/29 06:31:47;;;;;;;4.72;2.55;;;14.20;73.70;;;;;;5086598;28;20047;-69
2021/05/29 06:34:15;;;;;;;4.03;2.47;;;14.30;73.60;;;;;;5112512;28;20097;-69
2021/05/29 06:36:42;;;;;;;4.82;2.50;;;14.40;73.50;;;;;;5112479;28;20031;-69
2021/05/29 06:39:09;;;;;;;5.88;3.05;;;14.50;73.30;;;;;;5112822;28;20711;-69
2021/05/29 06:41:39;;;;;;;5.53;3.08;;;14.60;73.10;;;;;;5112071;28;20488;-69
2021/05/29 06:44:08;;;;;;;4.68;2.78;;;14.60;73.00;;;;;;5105809;28;20040;-69
2021/05/29 06:46:35;;;;;;;6.22;3.17;;;14.70;72.90;;;;;;5091664;28;20047;-69
2021/05/29 06:49:04;;;;;;;5.25;3.03;;;14.80;72.80;;;;;;5074201;28;20711;-69
2021/05/29 06:54:22;;;;;;;6.60;3.80;;;14.90;72.50;;;;;;5103683;28;20058;-69
2021/05/29 06:59:34;;;;;;;4.70;2.75;;;14.90;72.20;;;;;;5108061;28;20383;-69
2021/05/29 07:02:02;;;;;;;7.40;3.53;;;15.00;72.10;;;;;;5086827;28;20058;-70
2021/05/29 07:04:29;;;;;;;6.00;3.47;;;15.10;71.80;;;;;;5075987;28;20047;-69
2021/05/29 07:06:56;;;;;;;4.45;2.70;;;15.10;71.80;;;;;;5107633;28;20039;-69
2021/05/29 07:09:23;;;;;;;5.00;3.25;;;15.10;71.80;;;;;;5108694;28;20081;-70
2021/05/29 07:11:50;;;;;;;6.32;3.28;;;15.20;71.60;;;;;;5088201;28;20044;-69
2021/05/29 07:14:18;;;;;;;6.72;3.30;;;15.30;71.50;;;;;;5111574;28;20035;-71
2021/05/29 07:16:49;;;;;;;5.03;3.03;;;15.30;71.40;;;;;;5111757;28;20101;-71
2021/05/29 07:19:18;;;;;;;4.90;3.08;;;15.40;71.10;;;;;;5111659;28;20047;-70
2021/05/29 07:21:46;;;;;;;6.68;3.15;;;15.50;71.00;;;;;;5083749;28;20056;-70
2021/05/29 07:24:13;;;;;;;5.45;3.13;;;15.50;71.00;;;;;;5088332;28;20074;-70
2021/05/29 07:26:41;;;;;;;6.97;3.42;;;15.60;70.90;;;;;;5111269;28;20425;-70
2021/05/29 07:29:08;;;;;;;7.15;3.28;;;15.60;70.70;;;;;;5109724;28;20043;-71
2021/05/29 07:31:35;;;;;;;5.28;2.78;;;15.70;70.80;;;;;;5091356;28;20063;-70
2021/05/29 07:34:03;;;;;;;5.07;2.67;;;15.70;70.70;;;;;;5108513;28;20119;-70
2021/05/29 07:36:30;;;;;;;5.40;3.10;;;15.80;70.60;;;;;;5093130;28;20063;-71
2021/05/29 07:38:57;;;;;;;5.63;3.38;;;15.90;70.40;;;;;;5108614;28;20039;-70
2021/05/29 07:41:24;;;;;;;5.32;2.67;;;15.90;70.20;;;;;;5102828;28;20042;-70
2021/05/29 07:43:51;;;;;;;4.63;2.30;;;15.90;70.20;;;;;;5093045;28;20403;-70
2021/05/29 07:46:19;;;;;;;10.52;3.17;;;16.00;70.10;;;;;;5084083;28;20114;-69
2021/05/29 07:48:46;;;;;;;5.93;2.92;;;16.10;70.00;;;;;;5093161;28;20044;-70
2021/05/29 07:51:15;;;;;;;6.15;2.60;;;16.00;70.10;;;;;;5091700;28;20039;-70
2021/05/29 07:53:43;;;;;;;7.13;3.88;;;16.20;70.10;;;;;;5092945;28;20050;-71
2021/05/29 07:56:14;;;;;;;5.32;2.78;;;16.30;69.50;;;;;;5111434;28;20063;-70
2021/05/29 07:58:41;;;;;;;6.00;2.72;;;16.30;69.50;;;;;;5111120;28;20066;-70
2021/05/29 08:01:09;;;;;;;4.68;2.65;;;16.30;69.20;;;;;;5111183;28;20066;-70
2021/05/29 08:03:37;;;;;;;6.47;3.25;;;16.30;69.40;;;;;;5111316;28;20047;-71
2021/05/29 08:06:12;;;;;;;5.68;3.08;;;16.30;69.20;;;;;;5111388;28;20066;-71
2021/05/29 08:08:39;;;;;;;4.35;2.40;;;16.40;69.30;;;;;;5111226;28;20093;-70
2021/05/29 08:11:06;;;;;;;3.92;2.28;;;16.50;69.10;;;;;;5101954;28;20044;-75
2021/05/29 08:13:33;;;;;;;4.07;1.98;;;16.50;69.60;;;;;;5087997;28;20097;-70
2021/05/29 08:16:00;;;;;;;4.63;1.95;;;16.50;68.90;;;;;;5090350;28;20043;-69
2021/05/29 08:18:27;;;;;;;4.40;2.38;;;16.60;68.90;;;;;;5056724;28;20052;-69
2021/05/29 08:20:54;;;;;;;4.13;2.08;;;16.80;68.70;;;;;;5089560;28;20086;-69
2021/05/29 08:23:21;;;;;;;3.53;2.10;;;17.00;68.30;;;;;;5099353;28;20048;-70
2021/05/29 08:25:48;;;;;;;5.25;2.63;;;17.20;67.90;;;;;;5074615;28;20067;-70
2021/05/29 08:28:16;;;;;;;4.93;2.65;;;17.30;67.50;;;;;;5092585;28;20073;-70
2021/05/29 08:30:43;;;;;;;4.97;2.40;;;17.30;67.20;;;;;;5110117;28;20085;-70
2021/05/29 08:33:10;;;;;;;6.13;3.08;;;17.20;67.30;;;;;;5110829;28;20119;-70
2021/05/29 08:35:37;;;;;;;5.55;2.40;;;17.10;67.40;;;;;;5075516;28;20044;-70
2021/05/29 08:38:05;;;;;;;5.25;2.58;;;17.00;67.70;;;;;;5110989;28;20066;-70
2021/05/29 08:40:32;;;;;;;4.95;3.13;;;16.90;67.70;;;;;;5110666;28;20040;-70
2021/05/29 08:43:00;;;;;;;4.78;2.53;;;16.80;67.70;;;;;;5111943;28;20105;-70
2021/05/29 08:45:27;;;;;;;5.75;2.90;;;16.80;67.80;;;;;;5109174;28;20081;-70
2021/05/29 08:47:54;;;;;;;4.72;2.60;;;17.10;67.60;;;;;;5095008;28;20047;-70
2021/05/29 08:50:21;;;;;;;4.53;2.47;;;17.30;67.00;;;;;;5110251;28;20032;-70
2021/05/29 08:52:49;;;;;;;4.60;2.75;;;17.50;66.60;;;;;;5093510;28;20447;-70
2021/05/29 08:55:17;;;;;;;4.55;2.55;;;17.60;66.20;;;;;;5113885;28;20032;-70
2021/05/29 08:57:48;;;;;;;5.03;3.00;;;17.50;66.50;;;;;;5108207;28;20040;-70
2021/05/29 09:00:22;;;;;;;5.15;3.25;;;17.40;66.20;;;;;;5102488;28;20401;-70
2021/05/29 09:03:11;;;;;;;5.88;3.28;;;17.30;66.50;;;;;;5109705;28;20506;-69
2021/05/29 09:05:48;;;;;;;4.22;2.67;;;17.20;66.60;;;;;;5110466;28;20100;-70
2021/05/29 09:08:16;;;;;;;6.03;2.75;;;17.10;66.70;;;;;;5105917;28;20121;-70
2021/05/29 09:10:48;;;;;;;6.28;2.80;;;17.20;66.70;;;;;;5075951;28;20098;-69
2021/05/29 09:13:20;;;;;;;5.38;2.45;;;17.40;66.70;;;;;;5107942;28;20120;-70
2021/05/29 09:15:50;;;;;;;3.33;2.40;;;17.60;66.40;;;;;;5096012;28;20552;-70
2021/05/29 09:18:27;;;;;;;4.95;3.00;;;17.90;66.00;;;;;;5100884;28;20038;-70
2021/05/29 09:21:21;;;;;;;5.40;2.80;;;18.30;65.20;;;;;;5086136;28;20054;-70
2021/05/29 09:24:12;;;;;;;5.20;3.03;;;18.60;64.40;;;;;;5113683;28;20078;-70
2021/05/29 09:26:43;;;;;;;3.95;2.33;;;18.60;64.30;;;;;;5093227;28;20056;-70
2021/05/29 09:29:23;;;;;;;4.80;2.80;;;18.60;64.50;;;;;;5083997;28;20546;-70
2021/05/29 09:32:00;;;;;;;5.38;2.70;;;18.50;64.30;;;;;;5087890;28;20584;-70
2021/05/29 09:34:43;;;;;;;4.78;2.50;;;18.40;64.60;;;;;;5087205;28;20131;-74
2021/05/29 09:37:12;;;;;;;5.03;2.78;;;18.40;64.60;;;;;;5086450;28;20055;-73
2021/05/29 09:39:47;;;;;;;5.55;3.10;;;18.30;64.70;;;;;;5083917;28;20135;-72
2021/05/29 09:42:16;;;;;;;4.57;2.22;;;18.30;64.40;;;;;;5078998;28;20048;-72
2021/05/29 09:44:44;;;;;;;4.13;2.30;;;18.30;64.60;;;;;;5086040;28;20064;-73
2021/05/29 09:47:16;;;;;;;4.55;2.60;;;18.40;64.60;;;;;;5089404;28;20414;-73
2021/05/29 09:49:56;;;;;;;5.63;2.97;;;18.60;64.00;;;;;;5091579;28;20048;-73
2021/05/29 09:52:40;;;;;;;4.60;3.15;;;18.90;63.70;;;;;;5092442;28;20490;-73
2021/05/29 09:55:09;;;;;;;6.10;2.85;;;19.10;63.00;;;;;;5093140;28;20067;-72
2021/05/29 09:57:53;;;;;;;5.85;3.22;;;19.20;63.10;;;;;;5114081;27;20031;-73
2021/05/29 10:00:20;;;;;;;4.40;3.00;;;19.40;62.50;;;;;;5110776;28;20510;-73
2021/05/29 10:03:04;;;;;;;4.50;2.80;;;19.40;62.50;;;;;;5094462;28;20058;-73
2021/05/29 10:05:33;;;;;;;5.82;2.78;;;19.30;62.00;;;;;;5085026;28;20147;-71
2021/05/29 10:08:01;;;;;;;4.55;2.70;;;19.40;62.10;;;;;;5080678;28;20055;-70
2021/05/29 10:10:29;;;;;;;4.93;3.03;;;19.50;62.10;;;;;;5101493;28;20067;-70
2021/05/29 10:12:57;;;;;;;3.72;3.05;;;19.60;61.40;;;;;;5102833;28;20047;-70
2021/05/29 10:15:24;;;;;;;5.70;3.20;;;19.60;61.10;;;;;;5096678;28;20104;-70
2021/05/29 10:17:54;;;;;;;4.45;2.50;;;19.60;60.90;;;;;;5100747;28;20720;-69
2021/05/29 10:20:21;;;;;;;3.58;2.40;;;19.30;60.70;;;;;;5095094;28;20471;-71
2021/05/29 10:22:49;;;;;;;4.80;2.60;;;19.00;61.40;;;;;;5097056;28;20036;-72
2021/05/29 10:25:25;;;;;;;3.95;1.95;;;18.90;61.00;;;;;;5097165;28;20518;-72
2021/05/29 10:27:54;;;;;;;4.63;2.75;;;19.00;61.10;;;;;;5087624;28;20144;-73
2021/05/29 10:30:24;;;;;;;4.78;2.20;;;19.20;60.70;;;;;;5094946;28;20093;-70
2021/05/29 10:33:17;;;;;;;4.47;2.50;;;19.50;60.60;;;;;;5089592;28;20098;-71
2021/05/29 10:35:45;;;;;;;5.07;2.13;;;19.80;59.80;;;;;;5105652;28;20032;-72
2021/05/29 10:38:14;;;;;;;4.82;2.13;;;19.90;59.60;;;;;;5048073;28;20503;-72
2021/05/29 10:40:43;;;;;;;3.30;1.80;;;20.00;59.50;;;;;;5069391;28;20051;-71
2021/05/29 10:43:15;;;;;;;2.72;1.70;;;20.00;59.40;;;;;;5057047;28;20052;-71
2021/05/29 10:45:51;;;;;;;3.28;1.58;;;20.00;59.40;;;;;;5099902;28;20498;-71
2021/05/29 10:48:20;;;;;;;3.65;1.67;;;20.10;59.20;;;;;;5072366;28;20436;-70
2021/05/29 10:50:53;;;;;;;3.65;1.55;;;20.20;59.30;;;;;;5075760;28;20070;-71
2021/05/29 10:53:49;;;;;;;3.17;1.63;;;20.30;59.00;;;;;;5099716;28;20036;-71
2021/05/29 10:56:18;;;;;;;4.65;1.75;;;20.50;58.90;;;;;;5093007;28;20031;-72
2021/05/29 10:58:54;;;;;;;3.60;1.98;;;20.60;58.50;;;;;;5106411;28;20067;-71
2021/05/29 11:01:22;;;;;;;3.90;1.80;;;20.60;58.20;;;;;;5093315;28;20085;-71
2021/05/29 11:04:21;;;;;;;3.10;1.83;;;20.50;58.20;;;;;;5111707;28;20422;-71
2021/05/29 11:06:57;;;;;;;4.72;2.28;;;20.50;58.10;;;;;;5087377;28;20078;-71
2021/05/29 11:09:24;;;;;;;4.07;1.95;;;20.40;57.90;;;;;;5103160;28;20039;-71
2021/05/29 11:11:58;;;;;;;4.82;2.42;;;20.40;58.40;;;;;;5070489;28;20126;-69
2021/05/29 11:14:51;;;;;;;3.58;1.92;;;20.50;57.90;;;;;;5106253;28;20372;-70
2021/05/29 11:17:20;;;;;;;4.10;1.92;;;20.50;57.80;;;;;;5082412;28;20179;-69
2021/05/29 11:20:10;;;;;;;2.60;1.40;;;20.20;57.90;;;;;;5106987;28;20048;-70
2021/05/29 11:22:57;;;;;;;2.70;1.60;;;20.20;58.10;;;;;;5088259;28;20028;-72
2021/05/29 11:25:24;;;;;;;3.22;1.50;;;20.30;57.60;;;;;;5105293;28;20035;-70
2021/05/29 11:27:51;;;;;;;2.90;1.50;;;20.40;57.40;;;;;;5087546;28;20032;-69
2021/05/29 11:30:23;;;;;;;4.30;1.88;;;20.50;57.10;;;;;;5086236;28;20383;-69
2021/05/29 11:35:29;;;;;;;5.13;2.40;;;20.40;57.00;;;;;;5102566;28;20034;-71
2021/05/29 11:38:21;;;;;;;2.95;1.70;;;20.10;57.10;;;;;;5092602;28;20055;-69
2021/05/29 11:41:01;;;;;;;5.32;2.00;;;20.00;57.50;;;;;;5087329;28;20059;-69
2021/05/29 11:43:52;;;;;;;3.78;1.90;;;20.10;58.00;;;;;;5111087;28;20495;-71
2021/05/29 11:46:27;;;;;;;3.75;1.90;;;20.40;56.80;;;;;;5109237;28;20429;-69
2021/05/29 11:48:56;;;;;;;3.50;1.80;;;20.60;56.50;;;;;;5111357;28;20040;-70
2021/05/29 11:51:24;;;;;;;2.92;1.40;;;21.00;55.80;;;;;;5110860;28;20343;-70
2021/05/29 11:53:53;;;;;;;3.67;1.33;;;21.20;54.80;;;;;;5076388;28;20035;-71
2021/05/29 11:56:29;;;;;;;2.65;1.65;;;21.10;55.00;;;;;;5092233;28;20054;-71
2021/05/29 11:59:02;;;;;;;3.65;1.88;;;21.10;55.00;;;;;;5083344;28;20560;-74
2021/05/29 12:01:40;;;;;;;2.83;1.55;;;21.20;55.20;;;;;;5104241;28;20048;-72
2021/05/29 12:04:09;;;;;;;3.95;1.70;;;21.50;54.30;;;;;;5109523;28;20078;-72
2021/05/29 12:06:51;;;;;;;3.63;1.52;;;21.90;53.40;;;;;;5111320;28;20085;-73
2021/05/29 12:09:26;;;;;;;3.45;1.83;;;22.50;52.60;;;;;;5111101;28;20044;-72
2021/05/29 12:11:55;;;;;;;3.65;1.85;;;22.90;51.60;;;;;;5111457;28;20035;-72
2021/05/29 12:14:25;;;;;;;2.33;1.27;;;23.10;51.10;;;;;;5110891;28;20043;-73
2021/05/29 12:17:04;;;;;;;2.85;1.40;;;22.70;51.60;;;;;;5111267;28;20039;-73
2021/05/29 12:19:44;;;;;;;2.92;1.38;;;22.40;52.20;;;;;;5111418;28;20047;-74
2021/05/29 12:22:22;;;;;;;3.85;1.55;;;22.90;51.90;;;;;;5102283;28;20044;-74
2021/05/29 12:25:04;;;;;;;3.70;1.67;;;23.50;51.20;;;;;;5095261;28;20097;-70
2021/05/29 12:27:42;;;;;;;3.05;1.50;;;24.10;49.70;;;;;;5102133;28;20086;-70
2021/05/29 12:30:14;;;;;;;3.30;1.60;;;24.60;49.40;;;;;;5100754;27;20043;-70
2021/05/29 12:32:43;;;;;;;2.08;1.17;;;24.80;49.00;;;;;;5094946;28;20048;-70
2021/05/29 12:35:35;;;;;;;2.05;1.10;;;24.20;49.70;;;;;;5096223;28;20149;-72
2021/05/29 12:38:19;;;;;;;2.10;1.10;;;23.60;50.60;;;;;;5092037;28;20036;-72
2021/05/29 12:41:15;;;;;;;2.22;1.20;;;23.00;51.60;;;;;;5110481;28;20043;-71
2021/05/29 12:43:42;;;;;;;4.10;1.40;;;22.50;52.10;;;;;;5112216;28;20081;-69
2021/05/29 12:46:22;;;;;;;3.08;1.40;;;22.70;52.20;;;;;;5093616;28;20044;-72
2021/05/29 12:49:13;;;;;;;3.17;1.40;;;23.50;50.20;;;;;;5114449;28;20031;-74
2021/05/29 12:51:44;;;;;;;2.08;1.27;;;24.40;49.00;;;;;;5109787;27;20031;-73
2021/05/29 12:54:13;;;;;;;2.08;1.23;;;24.70;48.50;;;;;;5093131;28;20103;-71
2021/05/29 12:56:57;;;;;;;2.42;1.05;;;24.10;48.90;;;;;;5074804;28;20127;-69
2021/05/29 12:59:27;;;;;;;2.75;1.20;;;23.50;49.90;;;;;;5102999;28;20534;-70
2021/05/29 13:07:39;;;;;;;3.22;1.30;;;25.50;48.00;;;;;;5043246;28;20092;-72
2021/05/29 13:13:02;;;;;;;2.10;1.10;;;25.70;46.80;;;;;;5111896;28;20453;-72
2021/05/29 13:15:30;;;;;;;3.13;1.42;;;25.20;47.50;;;;;;5107235;28;20047;-70
2021/05/29 13:18:27;;;;;;;2.05;1.20;;;25.40;48.20;;;;;;5093240;27;20056;-71
2021/05/29 13:21:05;;;;;;;3.25;1.35;;;26.20;46.40;;;;;;5073389;28;20047;-71
2021/05/29 13:23:42;;;;;;;1.90;1.00;;;26.80;45.70;;;;;;5104939;28;20079;-71
2021/05/29 13:26:09;;;;;;;1.58;0.80;;;27.50;45.30;;;;;;5091155;28;20047;-71
2021/05/29 13:28:37;;;;;;;1.50;1.00;;;27.90;45.40;;;;;;5113080;28;20436;-70